This is the latest recevied weather packets stored in our database for station/object OE3EMC-13. If no packets are shown the sender has not sent any weather packets the latest 10 day(s).
| Time | Temp. | Humidity | Pressure | Rain* | Wind** | Luminosity | Snow |
|---|---|---|---|---|---|---|---|
| 1777141390 | 12.78° C | 42% | 1100 hPa | 0 mm | - | - | - |
| 1777140791 | 13.89° C | 39% | 1100 hPa | 0 mm | - | - | - |
| 1777140190 | 13.89° C | 39% | 1100 hPa | 0 mm | - | - | - |
| 1777139590 | 15° C | 39% | 1100 hPa | 0 mm | - | - | - |
| 1777138991 | 15° C | 39% | 1100 hPa | 0 mm | - | - | - |
| 1777138390 | 16.11° C | 37% | 1100 hPa | 0 mm | - | - | - |
| 1777137790 | 16.11° C | 37% | 1100 hPa | 0 mm | - | - | - |
| 1777137194 | 17.78° C | 33% | 1100 hPa | 0 mm | - | - | - |
| 1777136594 | 17.78° C | 33% | 1100 hPa | 0 mm | - | - | - |
| 1777135996 | 18.89° C | 32% | 1100 hPa | 0 mm | - | - | - |
| 1777135394 | 18.89° C | 32% | 1100 hPa | 0 mm | - | - | - |
| 1777134795 | 19.44° C | 31% | 1100 hPa | 0 mm | - | - | - |
| 1777134195 | 19.44° C | 31% | 1100 hPa | 0 mm | - | - | - |
| 1777133594 | 21.11° C | 31% | 1100 hPa | 0 mm | - | - | - |
| 1777132993 | 21.11° C | 31% | 1100 hPa | 0 mm | - | - | - |
| 1777132393 | 21.11° C | 30% | 1100 hPa | 0 mm | - | - | - |
| 1777131793 | 21.11° C | 30% | 1100 hPa | 0 mm | - | - | - |
| 1777131193 | 21.67° C | 30% | 1100 hPa | 0 mm | - | - | - |
| 1777130593 | 21.67° C | 30% | 1100 hPa | 0 mm | - | - | - |
| 1777129994 | 22.22° C | 31% | 1100 hPa | 0 mm | - | - | - |
| 1777129392 | 22.22° C | 31% | 1100 hPa | 0 mm | - | - | - |
| 1777128793 | 22.22° C | 30% | 1100 hPa | 0 mm | - | - | - |
| 1777128192 | 22.22° C | 30% | 1100 hPa | 0 mm | - | - | - |
| 1777127592 | 22.22° C | 31% | 1100 hPa | 0 mm | - | - | - |
| 1777126992 | 22.22° C | 31% | 1100 hPa | 0 mm | - | - | - |
* Rain latest hour (hover to see other rain measurements)
** Current wind speed in m/s (hover to see current wind gust speed)